sensor_id;sensor_type;location;lat;lon;timestamp;P1;durP1;ratioP1;P2;durP2;ratioP2
74383;SDS011;62824;52.994;-3.936;2023-04-19T00:00:09;9.35;;;6.53;;
74383;SDS011;62824;52.994;-3.936;2023-04-19T00:02:36;9.88;;;6.10;;
74383;SDS011;62824;52.994;-3.936;2023-04-19T00:05:01;13.68;;;6.50;;
74383;SDS011;62824;52.994;-3.936;2023-04-19T00:07:27;10.80;;;6.88;;
74383;SDS011;62824;52.994;-3.936;2023-04-19T00:09:53;11.35;;;6.28;;
74383;SDS011;62824;52.994;-3.936;2023-04-19T00:12:19;10.38;;;6.28;;
74383;SDS011;62824;52.994;-3.936;2023-04-19T00:14:45;11.98;;;7.05;;
74383;SDS011;62824;52.994;-3.936;2023-04-19T00:17:10;13.57;;;7.88;;
74383;SDS011;62824;52.994;-3.936;2023-04-19T00:19:36;14.55;;;7.72;;
74383;SDS011;62824;52.994;-3.936;2023-04-19T00:22:02;15.80;;;7.97;;
74383;SDS011;62824;52.994;-3.936;2023-04-19T00:24:28;11.02;;;7.15;;
74383;SDS011;62824;52.994;-3.936;2023-04-19T00:26:53;12.40;;;8.00;;
74383;SDS011;62824;52.994;-3.936;2023-04-19T00:29:19;16.00;;;7.90;;
74383;SDS011;62824;52.994;-3.936;2023-04-19T00:31:45;13.20;;;8.13;;
74383;SDS011;62824;52.994;-3.936;2023-04-19T00:34:11;12.82;;;8.50;;
74383;SDS011;62824;52.994;-3.936;2023-04-19T00:36:36;13.93;;;8.13;;
74383;SDS011;62824;52.994;-3.936;2023-04-19T00:39:02;11.57;;;7.72;;
74383;SDS011;62824;52.994;-3.936;2023-04-19T00:41:28;14.15;;;8.50;;
74383;SDS011;62824;52.994;-3.936;2023-04-19T00:43:54;14.43;;;8.25;;
74383;SDS011;62824;52.994;-3.936;2023-04-19T00:46:20;14.50;;;8.70;;
74383;SDS011;62824;52.994;-3.936;2023-04-19T00:48:47;11.45;;;8.55;;
74383;SDS011;62824;52.994;-3.936;2023-04-19T00:51:13;13.90;;;9.00;;
74383;SDS011;62824;52.994;-3.936;2023-04-19T00:53:40;12.50;;;7.68;;
74383;SDS011;62824;52.994;-3.936;2023-04-19T00:56:06;14.82;;;8.98;;
74383;SDS011;62824;52.994;-3.936;2023-04-19T00:58:33;16.52;;;9.13;;
74383;SDS011;62824;52.994;-3.936;2023-04-19T01:00:59;15.52;;;9.30;;
74383;SDS011;62824;52.994;-3.936;2023-04-19T01:03:26;14.88;;;8.93;;
74383;SDS011;62824;52.994;-3.936;2023-04-19T01:05:53;15.27;;;8.93;;
74383;SDS011;62824;52.994;-3.936;2023-04-19T01:08:19;15.45;;;9.63;;
74383;SDS011;62824;52.994;-3.936;2023-04-19T01:10:45;14.82;;;8.68;;
74383;SDS011;62824;52.994;-3.936;2023-04-19T01:13:11;15.85;;;9.88;;
74383;SDS011;62824;52.994;-3.936;2023-04-19T01:15:36;14.48;;;9.27;;
74383;SDS011;62824;52.994;-3.936;2023-04-19T01:18:02;14.77;;;9.50;;
74383;SDS011;62824;52.994;-3.936;2023-04-19T01:20:28;14.50;;;9.63;;
74383;SDS011;62824;52.994;-3.936;2023-04-19T01:22:54;18.45;;;9.90;;
74383;SDS011;62824;52.994;-3.936;2023-04-19T01:25:20;19.17;;;9.88;;
74383;SDS011;62824;52.994;-3.936;2023-04-19T01:27:45;14.40;;;10.00;;
74383;SDS011;62824;52.994;-3.936;2023-04-19T01:30:11;18.63;;;9.60;;
74383;SDS011;62824;52.994;-3.936;2023-04-19T01:32:37;17.10;;;10.60;;
74383;SDS011;62824;52.994;-3.936;2023-04-19T01:35:03;17.02;;;9.57;;
74383;SDS011;62824;52.994;-3.936;2023-04-19T01:37:30;17.25;;;9.73;;
74383;SDS011;62824;52.994;-3.936;2023-04-19T01:39:58;19.90;;;10.73;;
74383;SDS011;62824;52.994;-3.936;2023-04-19T01:42:24;16.70;;;8.88;;
74383;SDS011;62824;52.994;-3.936;2023-04-19T01:44:51;18.45;;;10.52;;
74383;SDS011;62824;52.994;-3.936;2023-04-19T01:47:16;20.23;;;11.00;;
74383;SDS011;62824;52.994;-3.936;2023-04-19T01:49:42;16.90;;;9.63;;
74383;SDS011;62824;52.994;-3.936;2023-04-19T01:52:08;17.60;;;9.68;;
74383;SDS011;62824;52.994;-3.936;2023-04-19T01:54:34;17.58;;;10.65;;
74383;SDS011;62824;52.994;-3.936;2023-04-19T01:56:59;18.30;;;10.85;;
74383;SDS011;62824;52.994;-3.936;2023-04-19T01:59:25;15.45;;;9.82;;
74383;SDS011;62824;52.994;-3.936;2023-04-19T02:01:51;17.55;;;10.25;;
74383;SDS011;62824;52.994;-3.936;2023-04-19T02:04:18;19.30;;;11.07;;
74383;SDS011;62824;52.994;-3.936;2023-04-19T02:06:45;19.67;;;11.18;;
74383;SDS011;62824;52.994;-3.936;2023-04-19T02:09:11;23.58;;;12.55;;
74383;SDS011;62824;52.994;-3.936;2023-04-19T02:11:36;18.55;;;12.13;;
74383;SDS011;62824;52.994;-3.936;2023-04-19T02:14:03;17.67;;;11.13;;
74383;SDS011;62824;52.994;-3.936;2023-04-19T02:16:28;20.52;;;11.80;;
74383;SDS011;62824;52.994;-3.936;2023-04-19T02:18:54;18.25;;;10.93;;
74383;SDS011;62824;52.994;-3.936;2023-04-19T02:21:20;17.08;;;11.02;;
74383;SDS011;62824;52.994;-3.936;2023-04-19T02:23:46;17.55;;;11.57;;
74383;SDS011;62824;52.994;-3.936;2023-04-19T02:26:11;18.70;;;10.82;;
74383;SDS011;62824;52.994;-3.936;2023-04-19T02:28:37;22.33;;;13.32;;
74383;SDS011;62824;52.994;-3.936;2023-04-19T02:31:06;19.52;;;12.18;;
74383;SDS011;62824;52.994;-3.936;2023-04-19T02:33:32;19.00;;;11.63;;
74383;SDS011;62824;52.994;-3.936;2023-04-19T02:35:58;21.15;;;11.30;;
74383;SDS011;62824;52.994;-3.936;2023-04-19T02:38:23;22.40;;;12.60;;
74383;SDS011;62824;52.994;-3.936;2023-04-19T02:40:49;21.58;;;12.07;;
74383;SDS011;62824;52.994;-3.936;2023-04-19T02:43:15;18.30;;;12.02;;
74383;SDS011;62824;52.994;-3.936;2023-04-19T02:45:41;19.02;;;12.07;;
74383;SDS011;62824;52.994;-3.936;2023-04-19T02:48:06;20.15;;;11.73;;
74383;SDS011;62824;52.994;-3.936;2023-04-19T02:50:32;18.20;;;12.05;;
74383;SDS011;62824;52.994;-3.936;2023-04-19T02:53:02;21.20;;;13.43;;
74383;SDS011;62824;52.994;-3.936;2023-04-19T02:55:27;22.88;;;12.82;;
74383;SDS011;62824;52.994;-3.936;2023-04-19T02:57:53;21.30;;;13.73;;
74383;SDS011;62824;52.994;-3.936;2023-04-19T03:00:19;25.10;;;14.43;;
74383;SDS011;62824;52.994;-3.936;2023-04-19T03:02:45;23.95;;;12.82;;
74383;SDS011;62824;52.994;-3.936;2023-04-19T03:05:10;19.15;;;11.95;;
74383;SDS011;62824;52.994;-3.936;2023-04-19T03:07:36;24.55;;;13.82;;
74383;SDS011;62824;52.994;-3.936;2023-04-19T03:10:02;23.58;;;13.65;;
74383;SDS011;62824;52.994;-3.936;2023-04-19T03:12:28;19.67;;;12.98;;
74383;SDS011;62824;52.994;-3.936;2023-04-19T03:14:54;21.65;;;12.48;;
74383;SDS011;62824;52.994;-3.936;2023-04-19T03:17:19;22.23;;;12.30;;
74383;SDS011;62824;52.994;-3.936;2023-04-19T03:19:45;25.30;;;13.40;;
74383;SDS011;62824;52.994;-3.936;2023-04-19T03:22:11;20.13;;;12.68;;
74383;SDS011;62824;52.994;-3.936;2023-04-19T03:24:37;20.75;;;13.00;;
74383;SDS011;62824;52.994;-3.936;2023-04-19T03:27:02;22.55;;;12.20;;
74383;SDS011;62824;52.994;-3.936;2023-04-19T03:29:28;21.67;;;12.50;;
74383;SDS011;62824;52.994;-3.936;2023-04-19T03:31:54;26.08;;;14.00;;
74383;SDS011;62824;52.994;-3.936;2023-04-19T03:34:20;21.58;;;12.90;;
74383;SDS011;62824;52.994;-3.936;2023-04-19T03:36:46;20.45;;;12.38;;
74383;SDS011;62824;52.994;-3.936;2023-04-19T03:39:11;18.52;;;13.02;;
74383;SDS011;62824;52.994;-3.936;2023-04-19T03:41:38;19.92;;;13.05;;
74383;SDS011;62824;52.994;-3.936;2023-04-19T03:44:04;20.92;;;12.45;;
74383;SDS011;62824;52.994;-3.936;2023-04-19T03:46:30;22.60;;;12.38;;
74383;SDS011;62824;52.994;-3.936;2023-04-19T03:48:56;23.20;;;13.85;;
74383;SDS011;62824;52.994;-3.936;2023-04-19T03:51:22;21.13;;;12.27;;
74383;SDS011;62824;52.994;-3.936;2023-04-19T03:53:48;20.90;;;13.63;;
74383;SDS011;62824;52.994;-3.936;2023-04-19T03:56:13;20.38;;;12.02;;
74383;SDS011;62824;52.994;-3.936;2023-04-19T03:58:39;22.20;;;11.65;;
74383;SDS011;62824;52.994;-3.936;2023-04-19T04:01:05;20.80;;;11.73;;
74383;SDS011;62824;52.994;-3.936;2023-04-19T04:03:32;22.05;;;13.30;;
74383;SDS011;62824;52.994;-3.936;2023-04-19T04:05:58;25.30;;;12.57;;
74383;SDS011;62824;52.994;-3.936;2023-04-19T04:08:24;21.63;;;12.88;;
74383;SDS011;62824;52.994;-3.936;2023-04-19T04:10:50;24.50;;;13.27;;
74383;SDS011;62824;52.994;-3.936;2023-04-19T04:13:16;22.90;;;12.27;;
74383;SDS011;62824;52.994;-3.936;2023-04-19T04:15:42;21.10;;;12.60;;
74383;SDS011;62824;52.994;-3.936;2023-04-19T04:18:08;25.10;;;13.77;;
74383;SDS011;62824;52.994;-3.936;2023-04-19T04:20:34;25.88;;;12.23;;
74383;SDS011;62824;52.994;-3.936;2023-04-19T04:23:00;22.63;;;12.20;;
74383;SDS011;62824;52.994;-3.936;2023-04-19T04:25:26;21.23;;;12.10;;
74383;SDS011;62824;52.994;-3.936;2023-04-19T04:27:53;21.92;;;12.10;;
74383;SDS011;62824;52.994;-3.936;2023-04-19T04:30:18;21.83;;;13.63;;
74383;SDS011;62824;52.994;-3.936;2023-04-19T04:32:44;23.40;;;13.10;;
74383;SDS011;62824;52.994;-3.936;2023-04-19T04:35:11;20.17;;;12.60;;
74383;SDS011;62824;52.994;-3.936;2023-04-19T04:37:37;22.02;;;12.35;;
74383;SDS011;62824;52.994;-3.936;2023-04-19T04:40:04;24.17;;;13.07;;
74383;SDS011;62824;52.994;-3.936;2023-04-19T04:42:30;20.10;;;12.95;;
74383;SDS011;62824;52.994;-3.936;2023-04-19T04:44:57;18.08;;;11.18;;
74383;SDS011;62824;52.994;-3.936;2023-04-19T04:47:29;20.23;;;11.48;;
74383;SDS011;62824;52.994;-3.936;2023-04-19T04:49:56;22.65;;;12.85;;
74383;SDS011;62824;52.994;-3.936;2023-04-19T04:52:22;24.58;;;13.70;;
74383;SDS011;62824;52.994;-3.936;2023-04-19T04:54:48;27.95;;;13.10;;
74383;SDS011;62824;52.994;-3.936;2023-04-19T04:57:14;23.63;;;13.10;;
74383;SDS011;62824;52.994;-3.936;2023-04-19T04:59:39;19.95;;;12.40;;
74383;SDS011;62824;52.994;-3.936;2023-04-19T05:02:05;21.63;;;13.52;;
74383;SDS011;62824;52.994;-3.936;2023-04-19T05:04:31;21.80;;;12.52;;
74383;SDS011;62824;52.994;-3.936;2023-04-19T05:06:57;20.00;;;11.63;;
74383;SDS011;62824;52.994;-3.936;2023-04-19T05:09:22;18.73;;;11.52;;
74383;SDS011;62824;52.994;-3.936;2023-04-19T05:11:48;25.58;;;12.23;;
74383;SDS011;62824;52.994;-3.936;2023-04-19T05:14:14;22.35;;;12.77;;
74383;SDS011;62824;52.994;-3.936;2023-04-19T05:16:40;24.00;;;12.35;;
74383;SDS011;62824;52.994;-3.936;2023-04-19T05:19:05;19.67;;;11.70;;
74383;SDS011;62824;52.994;-3.936;2023-04-19T05:21:34;25.85;;;12.93;;
74383;SDS011;62824;52.994;-3.936;2023-04-19T05:24:00;21.48;;;12.50;;
74383;SDS011;62824;52.994;-3.936;2023-04-19T05:26:25;20.65;;;11.80;;
74383;SDS011;62824;52.994;-3.936;2023-04-19T05:28:51;20.67;;;12.82;;
74383;SDS011;62824;52.994;-3.936;2023-04-19T05:31:17;20.75;;;12.55;;
74383;SDS011;62824;52.994;-3.936;2023-04-19T05:33:44;24.67;;;13.45;;
74383;SDS011;62824;52.994;-3.936;2023-04-19T05:36:10;20.05;;;12.52;;
74383;SDS011;62824;52.994;-3.936;2023-04-19T05:38:36;22.33;;;12.93;;
74383;SDS011;62824;52.994;-3.936;2023-04-19T05:41:02;23.00;;;13.20;;
74383;SDS011;62824;52.994;-3.936;2023-04-19T05:43:29;21.02;;;12.35;;
74383;SDS011;62824;52.994;-3.936;2023-04-19T05:45:55;22.52;;;13.00;;
74383;SDS011;62824;52.994;-3.936;2023-04-19T05:48:21;23.80;;;13.15;;
74383;SDS011;62824;52.994;-3.936;2023-04-19T05:50:47;26.60;;;14.10;;
74383;SDS011;62824;52.994;-3.936;2023-04-19T05:53:12;24.02;;;12.80;;
74383;SDS011;62824;52.994;-3.936;2023-04-19T05:55:38;27.88;;;14.10;;
74383;SDS011;62824;52.994;-3.936;2023-04-19T05:58:04;27.77;;;13.95;;
74383;SDS011;62824;52.994;-3.936;2023-04-19T06:00:30;23.38;;;13.18;;
74383;SDS011;62824;52.994;-3.936;2023-04-19T06:02:56;22.55;;;13.23;;
74383;SDS011;62824;52.994;-3.936;2023-04-19T06:05:23;24.65;;;13.10;;
74383;SDS011;62824;52.994;-3.936;2023-04-19T06:07:49;25.25;;;14.00;;
74383;SDS011;62824;52.994;-3.936;2023-04-19T06:10:15;19.92;;;12.77;;
74383;SDS011;62824;52.994;-3.936;2023-04-19T06:12:41;23.17;;;12.13;;
74383;SDS011;62824;52.994;-3.936;2023-04-19T06:15:07;21.75;;;12.13;;
74383;SDS011;62824;52.994;-3.936;2023-04-19T06:17:33;25.35;;;13.77;;
74383;SDS011;62824;52.994;-3.936;2023-04-19T06:19:59;22.98;;;13.55;;
74383;SDS011;62824;52.994;-3.936;2023-04-19T06:22:25;24.25;;;13.43;;
74383;SDS011;62824;52.994;-3.936;2023-04-19T06:24:50;22.42;;;12.70;;
74383;SDS011;62824;52.994;-3.936;2023-04-19T06:27:16;24.05;;;13.02;;
74383;SDS011;62824;52.994;-3.936;2023-04-19T06:29:42;22.67;;;13.27;;
74383;SDS011;62824;52.994;-3.936;2023-04-19T06:32:08;22.50;;;12.75;;
74383;SDS011;62824;52.994;-3.936;2023-04-19T06:34:35;21.65;;;13.15;;
74383;SDS011;62824;52.994;-3.936;2023-04-19T06:37:01;21.98;;;12.27;;
74383;SDS011;62824;52.994;-3.936;2023-04-19T06:39:27;23.88;;;12.63;;
74383;SDS011;62824;52.994;-3.936;2023-04-19T06:41:52;28.02;;;13.32;;
74383;SDS011;62824;52.994;-3.936;2023-04-19T06:44:18;19.95;;;13.30;;
74383;SDS011;62824;52.994;-3.936;2023-04-19T06:46:44;25.65;;;13.77;;
74383;SDS011;62824;52.994;-3.936;2023-04-19T06:49:10;22.25;;;11.77;;
74383;SDS011;62824;52.994;-3.936;2023-04-19T06:51:38;20.63;;;13.48;;
74383;SDS011;62824;52.994;-3.936;2023-04-19T06:54:04;27.05;;;13.98;;
74383;SDS011;62824;52.994;-3.936;2023-04-19T06:56:43;20.92;;;12.63;;
74383;SDS011;62824;52.994;-3.936;2023-04-19T06:59:14;22.85;;;12.63;;
74383;SDS011;62824;52.994;-3.936;2023-04-19T07:01:43;26.77;;;13.37;;
74383;SDS011;62824;52.994;-3.936;2023-04-19T07:04:09;24.55;;;13.45;;
74383;SDS011;62824;52.994;-3.936;2023-04-19T07:06:35;25.05;;;13.38;;
74383;SDS011;62824;52.994;-3.936;2023-04-19T07:09:02;22.58;;;13.80;;
74383;SDS011;62824;52.994;-3.936;2023-04-19T07:11:29;21.83;;;13.30;;
74383;SDS011;62824;52.994;-3.936;2023-04-19T07:13:56;22.33;;;13.32;;
74383;SDS011;62824;52.994;-3.936;2023-04-19T07:16:22;21.05;;;13.90;;
74383;SDS011;62824;52.994;-3.936;2023-04-19T07:18:47;23.83;;;14.63;;
74383;SDS011;62824;52.994;-3.936;2023-04-19T07:21:13;28.35;;;15.40;;
74383;SDS011;62824;52.994;-3.936;2023-04-19T07:23:39;23.70;;;14.13;;
74383;SDS011;62824;52.994;-3.936;2023-04-19T07:26:05;25.77;;;14.93;;
74383;SDS011;62824;52.994;-3.936;2023-04-19T07:28:32;24.88;;;15.13;;
74383;SDS011;62824;52.994;-3.936;2023-04-19T07:30:58;24.02;;;14.23;;
74383;SDS011;62824;52.994;-3.936;2023-04-19T07:33:25;23.90;;;13.30;;
74383;SDS011;62824;52.994;-3.936;2023-04-19T07:35:52;23.83;;;14.57;;
74383;SDS011;62824;52.994;-3.936;2023-04-19T07:38:18;24.80;;;15.25;;
74383;SDS011;62824;52.994;-3.936;2023-04-19T07:40:43;25.90;;;14.35;;
74383;SDS011;62824;52.994;-3.936;2023-04-19T07:43:09;28.40;;;15.85;;
74383;SDS011;62824;52.994;-3.936;2023-04-19T07:45:35;24.58;;;15.18;;
74383;SDS011;62824;52.994;-3.936;2023-04-19T07:48:01;21.52;;;14.43;;
74383;SDS011;62824;52.994;-3.936;2023-04-19T07:50:27;26.33;;;16.40;;
74383;SDS011;62824;52.994;-3.936;2023-04-19T07:52:53;28.73;;;16.15;;
74383;SDS011;62824;52.994;-3.936;2023-04-19T07:55:19;32.20;;;15.15;;
74383;SDS011;62824;52.994;-3.936;2023-04-19T07:57:45;26.40;;;16.85;;
74383;SDS011;62824;52.994;-3.936;2023-04-19T08:00:13;24.17;;;14.85;;
74383;SDS011;62824;52.994;-3.936;2023-04-19T08:02:43;24.92;;;15.15;;
74383;SDS011;62824;52.994;-3.936;2023-04-19T08:05:12;25.33;;;14.70;;
74383;SDS011;62824;52.994;-3.936;2023-04-19T08:07:41;30.80;;;15.18;;
74383;SDS011;62824;52.994;-3.936;2023-04-19T08:10:08;23.95;;;14.57;;
74383;SDS011;62824;52.994;-3.936;2023-04-19T08:12:34;23.88;;;15.32;;
74383;SDS011;62824;52.994;-3.936;2023-04-19T08:15:01;22.45;;;14.30;;
74383;SDS011;62824;52.994;-3.936;2023-04-19T08:17:31;25.67;;;15.10;;
74383;SDS011;62824;52.994;-3.936;2023-04-19T08:19:57;28.73;;;17.45;;
74383;SDS011;62824;52.994;-3.936;2023-04-19T08:22:23;23.73;;;14.68;;
74383;SDS011;62824;52.994;-3.936;2023-04-19T08:24:49;24.25;;;14.93;;
74383;SDS011;62824;52.994;-3.936;2023-04-19T08:27:16;24.92;;;14.63;;
74383;SDS011;62824;52.994;-3.936;2023-04-19T08:29:42;25.55;;;14.93;;
74383;SDS011;62824;52.994;-3.936;2023-04-19T08:32:08;23.15;;;13.50;;
74383;SDS011;62824;52.994;-3.936;2023-04-19T08:34:35;27.27;;;14.20;;
74383;SDS011;62824;52.994;-3.936;2023-04-19T08:37:01;27.10;;;16.67;;
74383;SDS011;62824;52.994;-3.936;2023-04-19T08:39:28;24.63;;;14.52;;
74383;SDS011;62824;52.994;-3.936;2023-04-19T08:41:56;29.52;;;16.67;;
74383;SDS011;62824;52.994;-3.936;2023-04-19T08:44:31;24.40;;;15.88;;
74383;SDS011;62824;52.994;-3.936;2023-04-19T08:46:57;23.63;;;14.75;;
74383;SDS011;62824;52.994;-3.936;2023-04-19T08:49:24;25.55;;;15.85;;
74383;SDS011;62824;52.994;-3.936;2023-04-19T08:51:51;24.88;;;15.10;;
74383;SDS011;62824;52.994;-3.936;2023-04-19T08:54:18;26.70;;;16.00;;
74383;SDS011;62824;52.994;-3.936;2023-04-19T08:56:45;24.38;;;13.77;;
74383;SDS011;62824;52.994;-3.936;2023-04-19T08:59:11;27.38;;;14.32;;
74383;SDS011;62824;52.994;-3.936;2023-04-19T09:01:38;27.80;;;15.13;;
74383;SDS011;62824;52.994;-3.936;2023-04-19T09:04:05;27.52;;;16.15;;
74383;SDS011;62824;52.994;-3.936;2023-04-19T09:06:34;24.80;;;16.83;;
74383;SDS011;62824;52.994;-3.936;2023-04-19T09:09:12;28.13;;;14.88;;
74383;SDS011;62824;52.994;-3.936;2023-04-19T09:11:38;21.05;;;14.00;;
74383;SDS011;62824;52.994;-3.936;2023-04-19T09:14:11;26.42;;;14.52;;
74383;SDS011;62824;52.994;-3.936;2023-04-19T09:16:38;28.13;;;15.52;;
74383;SDS011;62824;52.994;-3.936;2023-04-19T09:19:04;25.35;;;14.52;;
74383;SDS011;62824;52.994;-3.936;2023-04-19T09:21:31;26.85;;;15.60;;
74383;SDS011;62824;52.994;-3.936;2023-04-19T09:23:58;30.15;;;16.50;;
74383;SDS011;62824;52.994;-3.936;2023-04-19T09:26:25;29.65;;;15.48;;
74383;SDS011;62824;52.994;-3.936;2023-04-19T09:28:57;23.95;;;14.45;;
74383;SDS011;62824;52.994;-3.936;2023-04-19T09:31:26;26.87;;;17.00;;
74383;SDS011;62824;52.994;-3.936;2023-04-19T09:33:56;21.48;;;14.27;;
74383;SDS011;62824;52.994;-3.936;2023-04-19T09:36:28;25.13;;;16.63;;
74383;SDS011;62824;52.994;-3.936;2023-04-19T09:38:56;21.15;;;14.90;;
74383;SDS011;62824;52.994;-3.936;2023-04-19T09:41:22;24.02;;;15.63;;
74383;SDS011;62824;52.994;-3.936;2023-04-19T09:43:49;27.90;;;16.27;;
74383;SDS011;62824;52.994;-3.936;2023-04-19T09:51:52;25.02;;;14.60;;
74383;SDS011;62824;52.994;-3.936;2023-04-19T09:54:20;23.75;;;15.25;;
74383;SDS011;62824;52.994;-3.936;2023-04-19T09:56:47;23.92;;;15.02;;
74383;SDS011;62824;52.994;-3.936;2023-04-19T09:59:14;23.90;;;13.98;;
74383;SDS011;62824;52.994;-3.936;2023-04-19T10:01:53;21.55;;;13.45;;
74383;SDS011;62824;52.994;-3.936;2023-04-19T10:04:20;27.85;;;15.70;;
74383;SDS011;62824;52.994;-3.936;2023-04-19T10:06:50;22.45;;;14.95;;
74383;SDS011;62824;52.994;-3.936;2023-04-19T10:09:17;23.33;;;14.18;;
74383;SDS011;62824;52.994;-3.936;2023-04-19T10:11:48;24.45;;;14.57;;
74383;SDS011;62824;52.994;-3.936;2023-04-19T10:14:16;21.55;;;14.55;;
74383;SDS011;62824;52.994;-3.936;2023-04-19T10:16:46;23.63;;;15.95;;
74383;SDS011;62824;52.994;-3.936;2023-04-19T10:19:13;22.00;;;15.25;;
74383;SDS011;62824;52.994;-3.936;2023-04-19T10:21:42;24.60;;;14.88;;
74383;SDS011;62824;52.994;-3.936;2023-04-19T10:24:11;20.23;;;14.23;;
74383;SDS011;62824;52.994;-3.936;2023-04-19T10:32:36;23.75;;;15.48;;
74383;SDS011;62824;52.994;-3.936;2023-04-19T10:35:07;25.40;;;15.23;;
74383;SDS011;62824;52.994;-3.936;2023-04-19T10:37:33;19.08;;;14.63;;
74383;SDS011;62824;52.994;-3.936;2023-04-19T10:39:59;22.60;;;15.45;;
74383;SDS011;62824;52.994;-3.936;2023-04-19T10:42:41;18.45;;;13.73;;
74383;SDS011;62824;52.994;-3.936;2023-04-19T10:45:32;24.52;;;15.30;;
74383;SDS011;62824;52.994;-3.936;2023-04-19T10:47:59;20.85;;;14.48;;
74383;SDS011;62824;52.994;-3.936;2023-04-19T10:50:28;24.10;;;14.82;;
74383;SDS011;62824;52.994;-3.936;2023-04-19T10:52:54;19.90;;;14.90;;
74383;SDS011;62824;52.994;-3.936;2023-04-19T10:55:19;19.90;;;13.85;;
74383;SDS011;62824;52.994;-3.936;2023-04-19T10:58:04;25.10;;;15.02;;
74383;SDS011;62824;52.994;-3.936;2023-04-19T11:00:31;20.05;;;14.20;;
74383;SDS011;62824;52.994;-3.936;2023-04-19T11:06:15;22.15;;;15.43;;
74383;SDS011;62824;52.994;-3.936;2023-04-19T11:08:44;21.17;;;14.70;;
74383;SDS011;62824;52.994;-3.936;2023-04-19T11:11:11;19.45;;;14.00;;
74383;SDS011;62824;52.994;-3.936;2023-04-19T11:13:40;25.38;;;15.65;;
74383;SDS011;62824;52.994;-3.936;2023-04-19T11:16:07;23.55;;;19.10;;
74383;SDS011;62824;52.994;-3.936;2023-04-19T11:18:33;20.60;;;14.98;;
74383;SDS011;62824;52.994;-3.936;2023-04-19T11:20:59;21.42;;;15.90;;
74383;SDS011;62824;52.994;-3.936;2023-04-19T11:23:25;19.10;;;14.00;;
74383;SDS011;62824;52.994;-3.936;2023-04-19T11:25:54;20.33;;;14.27;;
74383;SDS011;62824;52.994;-3.936;2023-04-19T11:28:21;22.85;;;15.32;;
74383;SDS011;62824;52.994;-3.936;2023-04-19T11:30:47;23.02;;;14.68;;
74383;SDS011;62824;52.994;-3.936;2023-04-19T11:33:14;20.58;;;14.90;;
74383;SDS011;62824;52.994;-3.936;2023-04-19T11:35:49;23.17;;;15.07;;
74383;SDS011;62824;52.994;-3.936;2023-04-19T11:38:15;18.38;;;13.35;;
74383;SDS011;62824;52.994;-3.936;2023-04-19T11:40:40;24.50;;;14.68;;
74383;SDS011;62824;52.994;-3.936;2023-04-19T11:43:07;21.60;;;15.25;;
74383;SDS011;62824;52.994;-3.936;2023-04-19T11:45:33;19.88;;;14.20;;
74383;SDS011;62824;52.994;-3.936;2023-04-19T11:48:00;18.70;;;14.73;;
74383;SDS011;62824;52.994;-3.936;2023-04-19T11:53:08;19.40;;;14.60;;
74383;SDS011;62824;52.994;-3.936;2023-04-19T11:55:45;18.25;;;14.27;;
74383;SDS011;62824;52.994;-3.936;2023-04-19T12:01:07;21.67;;;14.63;;
74383;SDS011;62824;52.994;-3.936;2023-04-19T12:03:43;20.65;;;14.95;;
74383;SDS011;62824;52.994;-3.936;2023-04-19T12:06:14;24.23;;;14.32;;
74383;SDS011;62824;52.994;-3.936;2023-04-19T12:08:43;18.42;;;12.57;;
74383;SDS011;62824;52.994;-3.936;2023-04-19T12:11:11;20.95;;;13.25;;
74383;SDS011;62824;52.994;-3.936;2023-04-19T12:13:38;20.65;;;14.30;;
74383;SDS011;62824;52.994;-3.936;2023-04-19T12:16:08;19.35;;;13.65;;
74383;SDS011;62824;52.994;-3.936;2023-04-19T12:18:48;18.83;;;13.30;;
74383;SDS011;62824;52.994;-3.936;2023-04-19T12:21:24;19.85;;;13.70;;
74383;SDS011;62824;52.994;-3.936;2023-04-19T12:23:55;17.10;;;13.20;;
74383;SDS011;62824;52.994;-3.936;2023-04-19T12:26:23;16.60;;;13.18;;
74383;SDS011;62824;52.994;-3.936;2023-04-19T12:28:49;19.90;;;13.45;;
74383;SDS011;62824;52.994;-3.936;2023-04-19T12:31:15;18.27;;;12.68;;
74383;SDS011;62824;52.994;-3.936;2023-04-19T12:33:41;15.93;;;10.90;;
74383;SDS011;62824;52.994;-3.936;2023-04-19T12:36:07;15.88;;;12.13;;
74383;SDS011;62824;52.994;-3.936;2023-04-19T12:38:33;18.25;;;12.60;;
74383;SDS011;62824;52.994;-3.936;2023-04-19T12:40:59;15.80;;;10.90;;
74383;SDS011;62824;52.994;-3.936;2023-04-19T12:43:25;16.08;;;12.48;;
74383;SDS011;62824;52.994;-3.936;2023-04-19T12:45:51;20.75;;;13.80;;
74383;SDS011;62824;52.994;-3.936;2023-04-19T12:48:18;14.40;;;11.63;;
74383;SDS011;62824;52.994;-3.936;2023-04-19T12:50:43;16.48;;;11.88;;
74383;SDS011;62824;52.994;-3.936;2023-04-19T12:53:09;19.65;;;12.30;;
74383;SDS011;62824;52.994;-3.936;2023-04-19T12:55:35;15.50;;;11.27;;
74383;SDS011;62824;52.994;-3.936;2023-04-19T12:58:01;20.02;;;12.88;;
74383;SDS011;62824;52.994;-3.936;2023-04-19T13:00:26;16.67;;;12.15;;
74383;SDS011;62824;52.994;-3.936;2023-04-19T13:02:54;13.30;;;10.48;;
74383;SDS011;62824;52.994;-3.936;2023-04-19T13:05:20;16.05;;;12.35;;
74383;SDS011;62824;52.994;-3.936;2023-04-19T13:07:46;16.13;;;11.02;;
74383;SDS011;62824;52.994;-3.936;2023-04-19T13:10:12;16.60;;;11.45;;
74383;SDS011;62824;52.994;-3.936;2023-04-19T13:12:38;16.50;;;11.13;;
74383;SDS011;62824;52.994;-3.936;2023-04-19T13:15:04;14.00;;;11.35;;
74383;SDS011;62824;52.994;-3.936;2023-04-19T13:17:30;18.17;;;10.75;;
74383;SDS011;62824;52.994;-3.936;2023-04-19T13:19:56;19.65;;;12.93;;
74383;SDS011;62824;52.994;-3.936;2023-04-19T13:22:21;20.73;;;12.48;;
74383;SDS011;62824;52.994;-3.936;2023-04-19T13:24:47;20.10;;;11.98;;
74383;SDS011;62824;52.994;-3.936;2023-04-19T13:27:13;17.75;;;12.35;;
74383;SDS011;62824;52.994;-3.936;2023-04-19T13:29:39;16.83;;;11.90;;
74383;SDS011;62824;52.994;-3.936;2023-04-19T13:32:17;17.35;;;11.70;;
74383;SDS011;62824;52.994;-3.936;2023-04-19T13:34:59;19.92;;;12.10;;
74383;SDS011;62824;52.994;-3.936;2023-04-19T13:37:24;19.45;;;11.95;;
74383;SDS011;62824;52.994;-3.936;2023-04-19T13:39:50;21.48;;;12.38;;
74383;SDS011;62824;52.994;-3.936;2023-04-19T13:42:17;18.02;;;11.43;;
74383;SDS011;62824;52.994;-3.936;2023-04-19T13:44:43;18.40;;;11.93;;
74383;SDS011;62824;52.994;-3.936;2023-04-19T13:47:08;17.02;;;11.90;;
74383;SDS011;62824;52.994;-3.936;2023-04-19T13:49:35;16.73;;;12.40;;
74383;SDS011;62824;52.994;-3.936;2023-04-19T13:52:00;17.70;;;12.57;;
74383;SDS011;62824;52.994;-3.936;2023-04-19T13:54:26;19.92;;;12.55;;
74383;SDS011;62824;52.994;-3.936;2023-04-19T13:56:52;14.82;;;10.82;;
74383;SDS011;62824;52.994;-3.936;2023-04-19T13:59:18;15.10;;;10.52;;
74383;SDS011;62824;52.994;-3.936;2023-04-19T14:01:47;16.10;;;11.35;;
74383;SDS011;62824;52.994;-3.936;2023-04-19T14:04:27;19.90;;;11.77;;
74383;SDS011;62824;52.994;-3.936;2023-04-19T14:06:53;16.70;;;11.23;;
74383;SDS011;62824;52.994;-3.936;2023-04-19T14:09:18;18.55;;;10.48;;
74383;SDS011;62824;52.994;-3.936;2023-04-19T14:11:44;21.30;;;11.57;;
74383;SDS011;62824;52.994;-3.936;2023-04-19T14:14:11;20.77;;;11.15;;
74383;SDS011;62824;52.994;-3.936;2023-04-19T14:16:37;17.00;;;11.05;;
74383;SDS011;62824;52.994;-3.936;2023-04-19T14:19:02;20.75;;;10.70;;
74383;SDS011;62824;52.994;-3.936;2023-04-19T14:21:28;18.55;;;10.55;;
74383;SDS011;62824;52.994;-3.936;2023-04-19T14:23:55;22.13;;;10.88;;
74383;SDS011;62824;52.994;-3.936;2023-04-19T14:26:21;18.02;;;10.30;;
74383;SDS011;62824;52.994;-3.936;2023-04-19T14:28:47;16.33;;;10.52;;